Time;durP1;ratioP1;P1;durP2;ratioP2;P2;SDS_P1;SDS_P2;PMS_P1;PMS_P2;Temp;Humidity;BMP_temperature;BMP_pressure;BME280_temperature;BME280_humidity;BME280_pressure;Samples;Min_cycle;Max_cycle;Signal;HPM_P1;HPM_P2
2022/01/07 00:00:54;;;;;;;45.67;24.88;;;3.90;99.90;;;;;;5065409;28;20295;-74
2022/01/07 00:03:22;;;;;;;40.42;24.92;;;4.00;99.90;;;;;;5064747;28;20234;-74
2022/01/07 00:05:49;;;;;;;40.50;23.83;;;4.00;99.90;;;;;;5066323;28;20218;-73
2022/01/07 00:08:17;;;;;;;41.13;23.23;;;4.00;99.90;;;;;;5065788;28;20373;-74
2022/01/07 00:10:44;;;;;;;44.55;22.15;;;3.90;99.90;;;;;;5060904;28;20295;-74
2022/01/07 00:13:12;;;;;;;46.00;24.27;;;4.00;99.90;;;;;;5066028;28;20248;-74
2022/01/07 00:15:40;;;;;;;45.90;23.98;;;4.00;99.90;;;;;;5049995;28;20176;-74
2022/01/07 00:18:07;;;;;;;35.25;22.90;;;4.00;99.90;;;;;;5066971;28;20274;-73
2022/01/07 00:20:57;;;;;;;38.75;22.27;;;4.00;99.90;;;;;;5065375;28;20219;-73
2022/01/07 00:23:25;;;;;;;37.20;23.10;;;3.90;99.90;;;;;;5065256;28;20374;-73
2022/01/07 00:25:52;;;;;;;44.75;22.95;;;3.90;99.90;;;;;;5065420;28;20194;-73
2022/01/07 00:28:19;;;;;;;42.22;21.27;;;3.80;99.90;;;;;;5066444;28;20254;-73
2022/01/07 00:30:46;;;;;;;36.72;20.73;;;3.80;99.90;;;;;;5065618;28;20274;-73
2022/01/07 00:33:13;;;;;;;41.00;22.13;;;3.80;99.90;;;;;;5066154;28;20215;-74
2022/01/07 00:35:40;;;;;;;40.55;23.17;;;3.80;99.90;;;;;;5065542;28;20222;-73
2022/01/07 00:38:07;;;;;;;37.00;20.10;;;3.70;99.90;;;;;;5066162;28;20222;-73
2022/01/07 00:40:35;;;;;;;77.28;23.73;;;3.80;99.90;;;;;;5065388;28;20330;-73
2022/01/07 00:43:03;;;;;;;33.13;19.23;;;3.90;99.90;;;;;;5065611;28;20215;-73
2022/01/07 00:45:30;;;;;;;35.08;19.33;;;3.90;99.90;;;;;;5065790;28;20206;-72
2022/01/07 00:47:58;;;;;;;43.50;21.20;;;3.90;99.90;;;;;;5065695;28;20278;-73
2022/01/07 00:50:27;;;;;;;35.78;20.20;;;3.90;99.90;;;;;;5065062;28;20219;-73
2022/01/07 00:52:55;;;;;;;37.45;19.27;;;3.90;99.90;;;;;;5065994;28;20199;-73
2022/01/07 00:55:23;;;;;;;32.88;18.70;;;3.90;99.90;;;;;;5065643;28;20430;-73
2022/01/07 00:57:51;;;;;;;34.80;19.75;;;4.00;99.90;;;;;;5067085;28;20227;-75
2022/01/07 01:00:20;;;;;;;35.15;20.83;;;4.00;99.90;;;;;;5073190;28;20225;-73
2022/01/07 01:02:48;;;;;;;33.45;16.80;;;4.10;99.90;;;;;;5065577;28;20191;-72
2022/01/07 01:05:15;;;;;;;34.42;17.35;;;4.10;99.90;;;;;;5065787;28;20196;-73
2022/01/07 01:07:43;;;;;;;34.08;16.92;;;4.10;99.90;;;;;;5064110;28;20255;-76
2022/01/07 01:10:12;;;;;;;35.83;17.40;;;4.10;99.90;;;;;;5064281;28;20224;-73
2022/01/07 01:12:41;;;;;;;25.50;16.85;;;4.10;99.90;;;;;;5065148;28;20184;-72
2022/01/07 01:15:13;;;;;;;31.45;15.38;;;4.10;99.90;;;;;;5065279;28;20208;-72
2022/01/07 01:17:40;;;;;;;36.05;17.55;;;4.10;99.90;;;;;;5065191;28;20294;-73
2022/01/07 01:20:09;;;;;;;23.80;15.32;;;4.10;99.90;;;;;;5064932;28;20191;-73
2022/01/07 01:22:36;;;;;;;32.47;17.55;;;4.00;99.90;;;;;;5064867;28;20239;-74
2022/01/07 01:25:05;;;;;;;25.42;15.55;;;4.10;99.90;;;;;;5065308;28;20210;-72
2022/01/07 01:27:32;;;;;;;28.27;16.23;;;4.10;99.90;;;;;;5065292;28;20259;-73
2022/01/07 01:30:00;;;;;;;28.88;14.07;;;4.00;99.90;;;;;;5064862;28;20188;-74
2022/01/07 01:32:29;;;;;;;27.05;14.30;;;4.00;99.90;;;;;;5065333;28;20211;-74
2022/01/07 01:34:55;;;;;;;35.00;14.60;;;4.00;99.90;;;;;;5069156;28;20211;-73
2022/01/07 01:37:22;;;;;;;29.60;14.90;;;4.00;99.90;;;;;;5069014;28;20255;-73
2022/01/07 01:39:49;;;;;;;27.67;15.55;;;4.10;99.90;;;;;;5068476;28;20202;-72
2022/01/07 01:42:16;;;;;;;18.70;12.05;;;4.10;99.90;;;;;;5068835;28;20381;-73
2022/01/07 01:44:43;;;;;;;17.23;12.88;;;4.00;99.90;;;;;;5060952;28;20215;-73
2022/01/07 01:47:10;;;;;;;28.55;15.38;;;4.00;99.90;;;;;;5068616;28;20187;-73
2022/01/07 01:49:38;;;;;;;25.27;14.07;;;4.00;99.90;;;;;;5067912;28;20318;-73
2022/01/07 01:52:06;;;;;;;23.25;12.93;;;4.10;99.90;;;;;;5064146;28;20295;-73
2022/01/07 01:54:33;;;;;;;25.33;12.95;;;4.00;99.90;;;;;;5070513;28;20357;-73
2022/01/07 01:57:00;;;;;;;21.80;12.40;;;4.00;99.90;;;;;;5068589;28;20259;-72
2022/01/07 01:59:29;;;;;;;29.13;14.00;;;3.90;99.90;;;;;;5068576;28;20208;-74
2022/01/07 02:01:57;;;;;;;25.60;13.50;;;4.00;99.90;;;;;;5068194;28;20230;-73
2022/01/07 02:04:24;;;;;;;21.92;13.10;;;4.00;99.90;;;;;;5068039;28;20215;-73
2022/01/07 02:06:54;;;;;;;26.13;13.50;;;3.90;99.90;;;;;;5068516;28;20309;-73
2022/01/07 02:09:25;;;;;;;23.60;12.80;;;4.00;99.90;;;;;;5068144;28;20225;-73
2022/01/07 02:11:52;;;;;;;20.25;13.27;;;4.00;99.90;;;;;;5068130;28;20442;-73
2022/01/07 02:14:19;;;;;;;18.58;11.15;;;4.10;99.90;;;;;;5068316;28;20214;-72
2022/01/07 02:16:46;;;;;;;22.08;10.93;;;4.00;99.90;;;;;;5067814;28;20224;-73
2022/01/07 02:19:13;;;;;;;24.02;11.48;;;4.00;99.90;;;;;;5068500;28;20207;-72
2022/01/07 02:21:42;;;;;;;19.85;10.45;;;4.10;99.90;;;;;;5067544;28;20278;-73
2022/01/07 02:24:09;;;;;;;15.18;9.85;;;4.10;99.90;;;;;;5056969;28;20204;-72
2022/01/07 02:26:36;;;;;;;21.75;9.68;;;4.10;99.90;;;;;;5067557;28;20206;-72
2022/01/07 02:29:04;;;;;;;24.00;12.23;;;4.10;99.90;;;;;;5067766;28;20199;-73
2022/01/07 02:31:31;;;;;;;21.60;9.57;;;4.10;99.90;;;;;;5067009;28;20509;-72
2022/01/07 02:33:58;;;;;;;19.08;10.82;;;4.10;99.90;;;;;;5067757;28;20267;-72
2022/01/07 02:36:25;;;;;;;24.05;10.82;;;4.20;99.90;;;;;;5067751;28;20199;-73
2022/01/07 02:38:54;;;;;;;18.10;10.30;;;4.20;99.90;;;;;;5073119;28;20283;-73
2022/01/07 02:41:21;;;;;;;14.90;8.23;;;4.20;99.90;;;;;;5066932;28;20281;-72
2022/01/07 02:43:48;;;;;;;21.77;9.73;;;4.30;99.90;;;;;;5067696;28;20282;-73
2022/01/07 02:46:15;;;;;;;20.35;8.50;;;4.20;99.90;;;;;;5068066;28;20254;-73
2022/01/07 02:48:42;;;;;;;22.08;10.18;;;4.10;99.90;;;;;;5068022;28;20238;-73
2022/01/07 02:51:08;;;;;;;19.10;8.55;;;4.10;99.90;;;;;;5066863;28;20239;-73
2022/01/07 02:53:35;;;;;;;17.33;8.20;;;4.20;99.90;;;;;;5067717;28;20223;-73
2022/01/07 02:56:04;;;;;;;17.17;7.40;;;4.20;99.90;;;;;;5067566;28;20198;-72
2022/01/07 02:58:31;;;;;;;20.95;9.30;;;4.20;99.90;;;;;;5067328;28;20222;-73
2022/01/07 03:00:58;;;;;;;19.80;8.15;;;4.20;99.90;;;;;;5066802;28;20212;-72
2022/01/07 03:03:25;;;;;;;12.25;8.05;;;4.10;99.90;;;;;;5068483;28;20184;-72
2022/01/07 03:05:52;;;;;;;13.45;8.40;;;4.10;99.90;;;;;;5071975;28;20192;-72
2022/01/07 03:08:19;;;;;;;12.77;7.50;;;4.00;99.90;;;;;;5068327;28;20176;-73
2022/01/07 03:10:57;;;;;;;20.35;9.38;;;4.00;99.90;;;;;;5067098;28;20226;-73
2022/01/07 03:13:25;;;;;;;13.88;7.45;;;3.80;99.90;;;;;;5067043;28;20199;-72
2022/01/07 03:15:52;;;;;;;17.40;8.15;;;3.70;99.90;;;;;;5066671;28;20208;-72
2022/01/07 03:18:19;;;;;;;12.23;8.38;;;3.70;99.90;;;;;;5067260;28;20238;-72
2022/01/07 03:20:46;;;;;;;13.75;9.73;;;3.70;99.90;;;;;;5066396;28;20224;-72
2022/01/07 03:23:14;;;;;;;14.55;8.27;;;3.70;99.90;;;;;;5067104;28;20245;-71
2022/01/07 03:25:43;;;;;;;12.93;8.20;;;3.50;99.90;;;;;;5071462;28;20184;-72
2022/01/07 03:28:10;;;;;;;14.95;9.82;;;3.60;99.90;;;;;;5066981;28;20241;-72
2022/01/07 03:30:39;;;;;;;17.30;8.18;;;3.60;99.90;;;;;;5066269;28;20285;-72
2022/01/07 03:33:07;;;;;;;15.32;8.13;;;3.60;99.90;;;;;;5066882;28;20231;-71
2022/01/07 03:35:35;;;;;;;15.63;8.60;;;3.60;99.90;;;;;;5066694;28;20202;-72
2022/01/07 03:38:02;;;;;;;12.07;8.40;;;3.50;99.90;;;;;;5066556;28;20285;-71
2022/01/07 03:40:30;;;;;;;13.32;8.27;;;3.60;99.90;;;;;;5075436;28;20436;-71
2022/01/07 03:42:57;;;;;;;20.77;8.60;;;3.50;99.90;;;;;;5077472;28;20206;-71
2022/01/07 03:45:24;;;;;;;18.02;9.45;;;3.50;99.90;;;;;;5066458;28;20215;-71
2022/01/07 03:47:54;;;;;;;18.63;9.43;;;3.40;99.90;;;;;;5066279;28;20195;-72
2022/01/07 03:50:22;;;;;;;17.75;8.73;;;3.40;99.90;;;;;;5065547;28;20270;-73
2022/01/07 03:52:50;;;;;;;18.48;10.68;;;3.40;99.90;;;;;;5066388;28;20201;-71
2022/01/07 03:55:19;;;;;;;17.13;10.52;;;3.40;99.90;;;;;;5066321;28;20187;-72
2022/01/07 03:57:46;;;;;;;19.25;9.90;;;3.50;99.90;;;;;;5066174;28;20230;-72
2022/01/07 04:00:18;;;;;;;25.92;12.93;;;3.60;99.90;;;;;;5065932;28;20210;-71
2022/01/07 04:02:46;;;;;;;16.10;9.95;;;3.40;99.90;;;;;;5070234;28;20217;-71
2022/01/07 04:05:15;;;;;;;18.85;9.60;;;3.40;99.90;;;;;;5070646;28;20230;-71
2022/01/07 04:07:43;;;;;;;21.55;9.80;;;3.50;99.90;;;;;;5066597;28;20180;-72
2022/01/07 04:10:10;;;;;;;18.52;10.60;;;3.50;99.90;;;;;;5065455;28;20219;-72
2022/01/07 04:12:37;;;;;;;17.75;11.57;;;3.50;99.90;;;;;;5066255;28;20285;-72
2022/01/07 04:15:08;;;;;;;19.30;10.55;;;3.40;99.90;;;;;;5066379;28;20188;-74
2022/01/07 04:17:36;;;;;;;22.90;11.90;;;3.40;99.90;;;;;;5065700;28;20434;-72
2022/01/07 04:20:04;;;;;;;17.70;10.80;;;3.50;99.90;;;;;;5065389;28;20223;-72
2022/01/07 04:22:33;;;;;;;20.05;10.98;;;3.50;99.90;;;;;;5066048;28;20261;-72
2022/01/07 04:25:01;;;;;;;17.40;11.45;;;3.50;99.90;;;;;;5066304;28;20191;-71
2022/01/07 04:27:28;;;;;;;14.52;10.82;;;3.60;99.90;;;;;;5065840;28;20196;-72
2022/01/07 04:29:54;;;;;;;17.77;10.68;;;3.50;99.90;;;;;;5065302;28;20215;-71
2022/01/07 04:32:22;;;;;;;18.00;11.20;;;3.40;99.90;;;;;;5065955;28;20314;-71
2022/01/07 04:34:49;;;;;;;24.05;12.50;;;3.40;99.90;;;;;;5066133;28;20259;-72
2022/01/07 04:37:16;;;;;;;15.27;11.20;;;3.50;99.90;;;;;;5065811;28;20441;-71
2022/01/07 04:39:44;;;;;;;16.80;10.82;;;3.50;99.90;;;;;;5057949;28;20207;-71
2022/01/07 04:42:12;;;;;;;24.20;12.85;;;3.50;99.90;;;;;;5073921;28;20223;-72
2022/01/07 04:44:40;;;;;;;15.40;11.60;;;3.50;99.90;;;;;;5073707;28;20382;-71
2022/01/07 04:47:07;;;;;;;15.80;11.00;;;3.50;99.90;;;;;;5066114;28;20188;-71
2022/01/07 04:49:35;;;;;;;20.30;10.00;;;3.50;99.90;;;;;;5064940;28;20215;-71
2022/01/07 04:52:02;;;;;;;14.50;11.15;;;3.60;99.90;;;;;;5065904;28;20218;-72
2022/01/07 04:54:29;;;;;;;26.63;11.95;;;3.60;99.90;;;;;;5065578;28;20398;-72
2022/01/07 04:56:57;;;;;;;15.95;9.15;;;3.50;99.90;;;;;;5066080;28;20218;-71
2022/01/07 04:59:25;;;;;;;16.60;10.82;;;3.50;99.90;;;;;;5065320;28;20366;-71
2022/01/07 05:01:52;;;;;;;20.63;11.10;;;3.50;99.90;;;;;;5065358;28;20226;-71
2022/01/07 05:04:19;;;;;;;17.00;10.70;;;3.30;99.90;;;;;;5065423;28;20208;-71
2022/01/07 05:06:47;;;;;;;15.88;10.60;;;3.50;99.90;;;;;;5065773;28;20188;-71
2022/01/07 05:09:16;;;;;;;17.92;12.35;;;3.50;99.90;;;;;;5068724;28;20186;-71
2022/01/07 05:11:43;;;;;;;22.35;11.05;;;3.50;99.90;;;;;;5068766;28;20210;-70
2022/01/07 05:14:13;;;;;;;20.92;11.18;;;3.50;99.90;;;;;;5069729;28;20226;-71
2022/01/07 05:16:40;;;;;;;20.48;12.18;;;3.40;99.90;;;;;;5069265;28;20187;-71
2022/01/07 05:19:07;;;;;;;23.85;12.10;;;3.50;99.90;;;;;;5069483;28;20261;-71
2022/01/07 05:21:34;;;;;;;15.65;11.20;;;3.60;99.90;;;;;;5068568;28;20221;-71
2022/01/07 05:24:01;;;;;;;17.38;11.60;;;3.50;99.90;;;;;;5069231;28;20194;-70
2022/01/07 05:26:28;;;;;;;16.58;10.45;;;3.60;99.90;;;;;;5068930;28;20445;-71
2022/01/07 05:28:56;;;;;;;21.58;12.07;;;3.60;99.90;;;;;;5068808;28;20329;-71
2022/01/07 05:31:25;;;;;;;16.15;11.05;;;3.70;99.90;;;;;;5068654;28;20280;-70
2022/01/07 05:33:53;;;;;;;18.70;10.80;;;3.60;99.90;;;;;;5069088;28;20213;-71
2022/01/07 05:36:21;;;;;;;16.92;10.57;;;3.50;99.90;;;;;;5068853;28;20226;-71
2022/01/07 05:38:48;;;;;;;19.45;11.43;;;3.60;99.90;;;;;;5076747;28;20223;-70
2022/01/07 05:41:16;;;;;;;21.38;12.02;;;3.60;99.90;;;;;;5068436;28;20254;-71
2022/01/07 05:43:42;;;;;;;19.13;11.10;;;3.70;99.90;;;;;;5067005;28;20449;-71
2022/01/07 05:46:14;;;;;;;16.58;11.32;;;3.70;99.90;;;;;;5076096;28;20199;-71
2022/01/07 05:48:43;;;;;;;19.25;11.13;;;3.70;99.90;;;;;;5080750;28;20190;-71
2022/01/07 05:51:17;;;;;;;19.58;11.68;;;3.70;99.90;;;;;;5072946;28;20438;-71
2022/01/07 05:53:44;;;;;;;17.48;11.88;;;3.70;99.90;;;;;;5069085;28;20217;-71
2022/01/07 05:56:11;;;;;;;16.02;12.35;;;3.70;99.90;;;;;;5069066;28;20350;-71
2022/01/07 05:58:38;;;;;;;19.98;12.35;;;3.70;99.90;;;;;;5068345;28;20243;-70
2022/01/07 06:01:05;;;;;;;16.27;11.00;;;3.70;99.90;;;;;;5067221;28;20227;-70
2022/01/07 06:03:33;;;;;;;23.77;14.30;;;3.80;99.90;;;;;;5066765;28;20191;-71
2022/01/07 06:06:01;;;;;;;18.50;11.95;;;3.70;99.90;;;;;;5068114;28;20295;-70
2022/01/07 06:08:28;;;;;;;21.73;12.90;;;3.70;99.90;;;;;;5068582;28;20214;-70
2022/01/07 06:10:55;;;;;;;27.58;14.13;;;3.70;99.90;;;;;;5067273;28;20231;-70
2022/01/07 06:13:22;;;;;;;15.35;12.50;;;3.70;99.90;;;;;;5068281;28;20219;-72
2022/01/07 06:15:49;;;;;;;19.05;13.13;;;3.80;99.90;;;;;;5067654;28;20200;-71
2022/01/07 06:18:16;;;;;;;21.95;12.77;;;3.80;99.90;;;;;;5067788;28;20401;-71
2022/01/07 06:20:43;;;;;;;17.98;11.93;;;3.80;99.90;;;;;;5067268;28;20369;-71
2022/01/07 06:23:11;;;;;;;23.20;12.40;;;3.70;99.90;;;;;;5068094;28;20195;-71
2022/01/07 06:25:39;;;;;;;28.50;15.43;;;3.80;99.90;;;;;;5067680;28;20195;-72
2022/01/07 06:28:06;;;;;;;17.92;13.77;;;3.90;99.90;;;;;;5067901;28;20188;-69
2022/01/07 06:30:33;;;;;;;25.90;15.52;;;3.90;99.90;;;;;;5066805;28;20219;-69
2022/01/07 06:33:00;;;;;;;34.67;15.05;;;3.90;99.90;;;;;;5067459;28;20273;-69
2022/01/07 06:35:27;;;;;;;16.02;11.75;;;3.90;99.90;;;;;;5067219;28;20398;-69
2022/01/07 06:37:54;;;;;;;19.15;13.85;;;3.80;99.90;;;;;;5072784;28;20202;-71
2022/01/07 06:40:22;;;;;;;23.27;13.27;;;3.90;99.90;;;;;;5069798;28;20373;-72
2022/01/07 06:42:50;;;;;;;16.42;11.20;;;3.90;99.90;;;;;;5067990;28;20223;-72
2022/01/07 06:45:17;;;;;;;17.42;13.25;;;3.80;99.90;;;;;;5067159;28;20342;-73
2022/01/07 06:47:45;;;;;;;21.25;15.75;;;3.80;99.90;;;;;;5067533;28;20184;-72
2022/01/07 06:50:15;;;;;;;17.17;13.10;;;3.80;99.90;;;;;;5066984;28;20215;-72
2022/01/07 06:52:42;;;;;;;16.08;13.55;;;3.70;99.90;;;;;;5067538;28;20190;-72
2022/01/07 06:55:09;;;;;;;19.67;14.70;;;3.90;99.90;;;;;;5067551;28;20196;-73
2022/01/07 06:57:38;;;;;;;23.38;13.32;;;3.90;99.90;;;;;;5067550;28;20226;-73
2022/01/07 07:00:06;;;;;;;22.83;14.43;;;3.80;99.90;;;;;;5066366;28;20315;-72
2022/01/07 07:02:33;;;;;;;25.85;15.90;;;3.80;99.90;;;;;;5068725;28;20211;-72
2022/01/07 07:05:00;;;;;;;27.88;15.65;;;3.70;99.90;;;;;;5068828;28;20373;-74
2022/01/07 07:07:27;;;;;;;20.80;15.85;;;3.70;99.90;;;;;;5068077;28;20425;-73
2022/01/07 07:09:53;;;;;;;24.48;15.82;;;3.70;99.90;;;;;;5068172;28;20306;-73
2022/01/07 07:12:20;;;;;;;25.75;16.90;;;3.70;99.90;;;;;;5067657;28;20231;-73
2022/01/07 07:14:49;;;;;;;21.77;13.32;;;3.70;99.90;;;;;;5067383;28;20195;-73
2022/01/07 07:17:16;;;;;;;19.50;14.95;;;3.80;99.90;;;;;;5067574;28;20230;-73
2022/01/07 07:19:46;;;;;;;19.92;15.98;;;3.70;99.90;;;;;;5065938;28;20250;-74
2022/01/07 07:22:13;;;;;;;17.35;13.88;;;3.70;99.90;;;;;;5067215;28;20381;-76
2022/01/07 07:24:40;;;;;;;20.63;16.38;;;3.80;99.90;;;;;;5067248;28;20187;-71
2022/01/07 07:27:08;;;;;;;19.02;14.48;;;3.80;99.90;;;;;;5061110;28;20363;-72
2022/01/07 07:29:35;;;;;;;23.15;16.30;;;3.80;99.90;;;;;;5063055;28;20184;-71
2022/01/07 07:32:07;;;;;;;24.13;16.60;;;3.80;99.90;;;;;;5066013;28;20234;-72
2022/01/07 07:37:15;;;;;;;20.50;14.38;;;3.80;99.90;;;;;;5061735;28;20449;-72
2022/01/07 07:39:42;;;;;;;18.80;13.85;;;3.80;99.90;;;;;;5065639;28;20238;-71
2022/01/07 07:42:09;;;;;;;20.98;15.75;;;3.80;99.90;;;;;;5065721;28;20286;-70
2022/01/07 07:44:36;;;;;;;25.77;17.75;;;3.90;99.90;;;;;;5066331;28;20228;-71
2022/01/07 07:47:05;;;;;;;19.77;16.40;;;3.90;99.90;;;;;;5066549;28;20212;-74
2022/01/07 07:49:32;;;;;;;19.25;14.77;;;3.80;99.90;;;;;;5065869;28;20303;-72
2022/01/07 07:51:59;;;;;;;24.88;16.48;;;3.70;99.90;;;;;;5066387;28;20491;-72
2022/01/07 07:54:26;;;;;;;26.88;17.48;;;3.70;99.90;;;;;;5066242;28;20219;-73
2022/01/07 07:56:53;;;;;;;25.52;17.88;;;3.70;99.90;;;;;;5066130;28;20195;-72
2022/01/07 07:59:22;;;;;;;24.17;18.65;;;3.70;99.90;;;;;;5066054;28;20207;-72
2022/01/07 08:01:49;;;;;;;25.92;18.90;;;3.80;99.90;;;;;;5062673;28;20289;-72
2022/01/07 08:04:19;;;;;;;19.58;14.93;;;3.80;99.90;;;;;;5058783;28;20219;-71
2022/01/07 08:06:46;;;;;;;26.58;16.60;;;3.90;99.90;;;;;;5064285;28;20196;-69
2022/01/07 08:09:14;;;;;;;24.88;16.13;;;3.90;99.90;;;;;;5064596;28;20271;-69
2022/01/07 08:11:50;;;;;;;22.40;17.83;;;3.80;99.90;;;;;;5072429;28;20433;-71
2022/01/07 08:17:02;;;;;;;24.45;17.20;;;3.80;99.90;;;;;;5065145;28;20413;-70
2022/01/07 08:19:30;;;;;;;27.95;19.15;;;3.80;99.90;;;;;;5064700;28;20220;-71
2022/01/07 08:21:58;;;;;;;29.75;18.92;;;3.80;99.90;;;;;;5065991;28;20270;-71
2022/01/07 08:24:25;;;;;;;30.60;19.63;;;3.80;99.90;;;;;;5066004;28;20186;-71
2022/01/07 08:26:51;;;;;;;25.20;19.90;;;3.90;99.90;;;;;;5065761;28;20218;-72
2022/01/07 08:29:20;;;;;;;25.88;18.40;;;3.90;99.90;;;;;;5056690;28;20306;-71
2022/01/07 08:37:13;;;;;;;21.70;17.77;;;4.00;99.90;;;;;;5061324;28;20198;-71
2022/01/07 08:39:40;;;;;;;23.52;18.90;;;4.00;99.90;;;;;;5064993;28;20241;-71
2022/01/07 08:42:07;;;;;;;22.67;19.23;;;3.90;99.90;;;;;;5067730;28;20213;-69
2022/01/07 08:44:34;;;;;;;22.27;17.98;;;3.90;99.90;;;;;;5072196;28;20262;-70
2022/01/07 08:47:01;;;;;;;24.00;18.13;;;3.90;99.90;;;;;;5072146;28;20237;-69
2022/01/07 08:49:29;;;;;;;25.23;17.70;;;3.90;99.90;;;;;;5071760;28;20234;-70
2022/01/07 08:51:56;;;;;;;26.88;20.17;;;3.90;99.90;;;;;;5072229;28;20215;-69
2022/01/07 08:54:24;;;;;;;24.63;19.38;;;3.90;99.90;;;;;;5072576;28;21523;-71
2022/01/07 08:56:51;;;;;;;27.83;19.75;;;4.00;99.90;;;;;;5072268;28;20260;-71
2022/01/07 08:59:19;;;;;;;27.88;18.40;;;4.00;99.90;;;;;;5071929;28;20225;-71
2022/01/07 09:01:45;;;;;;;23.73;19.90;;;4.00;99.90;;;;;;5071918;28;20203;-71
2022/01/07 09:04:12;;;;;;;26.50;20.92;;;3.90;99.90;;;;;;5072429;28;20256;-71
2022/01/07 09:06:39;;;;;;;28.27;19.98;;;3.90;99.90;;;;;;5071871;28;20223;-71
2022/01/07 09:09:06;;;;;;;28.92;21.27;;;3.80;99.90;;;;;;5071931;28;20188;-71
2022/01/07 09:11:34;;;;;;;25.27;22.23;;;3.80;99.90;;;;;;5071378;28;20241;-72
2022/01/07 09:14:02;;;;;;;29.23;20.17;;;4.10;99.90;;;;;;5064829;28;20218;-72
2022/01/07 09:16:29;;;;;;;27.73;21.08;;;4.10;99.90;;;;;;5071768;28;20370;-72
2022/01/07 09:18:56;;;;;;;27.42;19.20;;;4.00;99.90;;;;;;5071974;28;20241;-72
2022/01/07 09:21:22;;;;;;;29.10;20.92;;;4.00;99.90;;;;;;5071350;28;20219;-72
2022/01/07 09:23:50;;;;;;;28.60;21.67;;;3.90;99.90;;;;;;5071908;28;20258;-72
2022/01/07 09:26:17;;;;;;;24.17;19.45;;;3.90;99.90;;;;;;5072258;28;20258;-74
2022/01/07 09:28:45;;;;;;;27.92;20.13;;;4.00;99.90;;;;;;5071963;28;20421;-72
2022/01/07 09:31:14;;;;;;;26.60;20.17;;;4.00;99.90;;;;;;5071870;28;20211;-73
2022/01/07 09:33:41;;;;;;;30.10;21.92;;;4.00;99.90;;;;;;5072283;28;20183;-71
2022/01/07 09:36:08;;;;;;;26.65;20.70;;;4.00;99.90;;;;;;5063462;28;20219;-72
2022/01/07 09:38:35;;;;;;;39.15;24.55;;;3.90;99.90;;;;;;5070553;28;20199;-74
2022/01/07 09:41:02;;;;;;;30.52;19.70;;;4.00;99.90;;;;;;5071133;28;20257;-71
2022/01/07 09:43:29;;;;;;;27.95;21.45;;;4.00;99.90;;;;;;5076681;28;20215;-72
2022/01/07 09:45:57;;;;;;;28.02;20.77;;;4.00;99.90;;;;;;5078136;28;20222;-74
2022/01/07 09:48:26;;;;;;;31.40;23.10;;;3.90;99.90;;;;;;5071606;28;20249;-75
2022/01/07 09:50:53;;;;;;;33.92;20.05;;;4.00;99.90;;;;;;5069993;28;20222;-73
2022/01/07 09:53:20;;;;;;;30.50;21.02;;;4.00;99.90;;;;;;5070306;28;20184;-74
2022/01/07 09:55:47;;;;;;;29.98;21.25;;;4.10;99.90;;;;;;5068154;28;20394;-73
2022/01/07 09:58:14;;;;;;;33.20;23.35;;;4.20;99.90;;;;;;5068189;28;20192;-73
2022/01/07 10:00:43;;;;;;;27.10;22.88;;;4.20;99.90;;;;;;5067685;28;20283;-73
2022/01/07 10:03:13;;;;;;;27.40;22.75;;;4.30;99.90;;;;;;5075028;28;20226;-74
2022/01/07 10:05:42;;;;;;;32.55;23.23;;;4.40;99.90;;;;;;5076729;28;20187;-74
2022/01/07 10:08:21;;;;;;;24.63;19.05;;;4.50;99.90;;;;;;5068808;28;20200;-74
2022/01/07 10:10:48;;;;;;;25.20;19.77;;;4.50;99.90;;;;;;5067621;28;20253;-72
2022/01/07 10:13:20;;;;;;;28.95;21.08;;;4.50;99.90;;;;;;5064666;28;20215;-73
2022/01/07 10:15:47;;;;;;;28.23;21.00;;;4.50;99.90;;;;;;5060814;28;20233;-73
2022/01/07 10:18:16;;;;;;;25.38;20.70;;;4.40;99.90;;;;;;5068326;28;20188;-75
2022/01/07 10:20:45;;;;;;;27.80;20.80;;;4.60;99.90;;;;;;5067588;28;20225;-72
2022/01/07 10:23:14;;;;;;;30.02;21.60;;;4.50;99.90;;;;;;5068195;28;20191;-73
2022/01/07 10:25:44;;;;;;;29.52;23.33;;;4.60;99.90;;;;;;5068191;28;20267;-74
2022/01/07 10:28:12;;;;;;;32.85;21.88;;;4.60;99.90;;;;;;5068355;28;20195;-72
2022/01/07 10:30:44;;;;;;;31.70;22.08;;;4.70;99.90;;;;;;5055343;28;20234;-74
2022/01/07 10:33:21;;;;;;;30.90;21.85;;;4.70;99.90;;;;;;5055292;28;20189;-75
2022/01/07 10:35:51;;;;;;;33.30;20.35;;;4.70;99.90;;;;;;5051445;28;20199;-75
2022/01/07 10:38:20;;;;;;;33.28;21.38;;;4.80;99.90;;;;;;5057803;28;20304;-75
2022/01/07 10:40:49;;;;;;;29.02;21.67;;;4.70;99.90;;;;;;5066969;28;20389;-74
2022/01/07 10:43:18;;;;;;;24.77;20.67;;;4.80;99.90;;;;;;5067932;28;20290;-75
2022/01/07 10:45:48;;;;;;;27.55;19.95;;;4.80;99.90;;;;;;5068041;28;20238;-74
2022/01/07 10:48:15;;;;;;;31.02;22.50;;;4.80;99.90;;;;;;5067517;28;20208;-72
2022/01/07 10:50:45;;;;;;;29.17;21.15;;;4.80;99.90;;;;;;5062808;28;20206;-74
2022/01/07 10:53:20;;;;;;;24.98;20.65;;;4.80;99.90;;;;;;5070299;28;20241;-74
2022/01/07 10:56:05;;;;;;;28.35;19.90;;;4.80;99.90;;;;;;5067852;28;20222;-75
2022/01/07 10:58:59;;;;;;;32.22;21.58;;;4.90;99.90;;;;;;5068142;28;20394;-71
2022/01/07 11:01:38;;;;;;;27.63;21.08;;;4.90;99.90;;;;;;5068618;28;20222;-73
2022/01/07 11:04:07;;;;;;;28.65;22.08;;;4.80;99.90;;;;;;5072323;28;20191;-76
2022/01/07 11:06:37;;;;;;;33.83;24.35;;;4.80;99.90;;;;;;5068133;28;20202;-73
2022/01/07 11:09:07;;;;;;;36.75;23.20;;;4.90;99.90;;;;;;5072793;28;20192;-74
2022/01/07 11:11:34;;;;;;;29.00;22.20;;;4.80;99.90;;;;;;5076951;28;20462;-74
2022/01/07 11:14:08;;;;;;;32.28;22.70;;;4.90;99.90;;;;;;5072067;28;20262;-73
2022/01/07 11:16:37;;;;;;;30.92;22.00;;;4.90;99.90;;;;;;5063632;28;20197;-74
2022/01/07 11:19:06;;;;;;;32.00;22.67;;;4.80;99.90;;;;;;5072691;28;20681;-73
2022/01/07 11:21:34;;;;;;;31.58;22.80;;;4.80;99.90;;;;;;5066152;28;20234;-74
2022/01/07 11:24:35;;;;;;;35.80;24.48;;;4.90;99.90;;;;;;5067273;28;20180;-75
2022/01/07 11:27:03;;;;;;;39.15;24.10;;;4.90;99.90;;;;;;5067005;28;20201;-73
2022/01/07 11:29:30;;;;;;;44.22;26.50;;;4.90;99.90;;;;;;5074769;28;20223;-78
2022/01/07 11:32:33;;;;;;;36.13;25.33;;;4.90;99.90;;;;;;5066360;28;20215;-76
2022/01/07 11:35:47;;;;;;;32.67;23.52;;;5.00;99.90;;;;;;5066764;28;20266;-77
2022/01/07 11:38:40;;;;;;;31.52;21.85;;;5.10;99.90;;;;;;5058823;28;20255;-75
2022/01/07 11:41:11;;;;;;;30.65;22.38;;;5.20;99.90;;;;;;5052145;28;20389;-75
2022/01/07 11:43:42;;;;;;;31.08;20.42;;;5.20;99.90;;;;;;5064593;28;20377;-74
2022/01/07 11:46:32;;;;;;;32.80;22.35;;;5.20;99.90;;;;;;5066020;28;20218;-75
2022/01/07 11:49:02;;;;;;;33.15;22.40;;;5.30;99.90;;;;;;5068736;28;20203;-74
2022/01/07 11:51:43;;;;;;;34.00;22.02;;;5.20;99.90;;;;;;5065444;28;20208;-76
2022/01/07 11:54:14;;;;;;;35.83;23.80;;;5.20;99.90;;;;;;5062346;28;20377;-75
2022/01/07 11:56:45;;;;;;;44.28;24.27;;;5.20;99.90;;;;;;5065744;28;20422;-76
2022/01/07 11:59:26;;;;;;;33.10;23.38;;;5.20;99.90;;;;;;5065519;28;20397;-76
2022/01/07 12:02:03;;;;;;;40.97;23.98;;;5.40;99.90;;;;;;5064433;28;20285;-74
2022/01/07 12:04:31;;;;;;;27.83;21.23;;;5.40;99.90;;;;;;5064928;28;20385;-74
2022/01/07 12:07:01;;;;;;;33.38;21.13;;;5.40;99.90;;;;;;5065534;28;20416;-78
2022/01/07 12:09:30;;;;;;;42.92;22.40;;;5.40;99.90;;;;;;5073203;28;20192;-76
2022/01/07 12:12:00;;;;;;;41.38;21.77;;;5.50;99.90;;;;;;5066603;28;20237;-77
2022/01/07 12:14:30;;;;;;;36.78;18.90;;;5.50;99.90;;;;;;5066214;28;20218;-73
2022/01/07 12:16:59;;;;;;;32.90;20.15;;;5.60;99.90;;;;;;5065428;28;20228;-75
2022/01/07 12:20:00;;;;;;;23.55;18.08;;;5.80;99.90;;;;;;5074893;28;20264;-75
2022/01/07 12:22:27;;;;;;;36.25;18.67;;;5.80;99.90;;;;;;5066259;28;20216;-76
2022/01/07 12:24:59;;;;;;;25.20;19.17;;;5.90;99.90;;;;;;5066479;28;20435;-75
2022/01/07 12:27:27;;;;;;;23.92;17.17;;;6.10;99.90;;;;;;5065963;28;20198;-74
2022/01/07 12:29:57;;;;;;;32.97;21.20;;;6.00;99.90;;;;;;5065690;28;20199;-75
2022/01/07 12:32:33;;;;;;;22.05;17.35;;;6.00;99.90;;;;;;5065869;28;20212;-74
2022/01/07 12:35:02;;;;;;;18.75;14.77;;;6.10;99.90;;;;;;5066399;28;20224;-75
2022/01/07 12:37:29;;;;;;;20.75;15.25;;;6.20;99.90;;;;;;5066311;28;20193;-75
2022/01/07 12:39:58;;;;;;;18.90;14.85;;;6.10;99.90;;;;;;5065891;28;20247;-75
2022/01/07 12:42:25;;;;;;;20.15;14.73;;;6.00;99.90;;;;;;5063657;28;20224;-76
2022/01/07 12:44:57;;;;;;;19.67;14.20;;;6.10;99.90;;;;;;5066190;28;20192;-74
2022/01/07 12:47:26;;;;;;;18.45;14.20;;;6.10;99.90;;;;;;5071719;28;20337;-76
2022/01/07 12:49:55;;;;;;;22.67;14.23;;;6.20;99.90;;;;;;5065589;28;20216;-77
2022/01/07 12:52:25;;;;;;;18.15;13.93;;;6.20;99.90;;;;;;5067508;28;20215;-75
2022/01/07 12:54:59;;;;;;;20.20;13.95;;;6.30;99.90;;;;;;5065895;28;20192;-74
2022/01/07 12:57:37;;;;;;;22.48;13.95;;;6.30;99.90;;;;;;5058796;28;20197;-74